createdAt,value
2023-02-15T00:12:12.265Z,0.20
2023-02-15T00:49:11.848Z,0.00
2023-02-15T01:11:24.390Z,-0.10
2023-02-15T01:13:59.592Z,-0.10
2023-02-15T01:16:29.280Z,-0.10
2023-02-15T01:46:54.576Z,0.00
2023-02-15T01:49:28.024Z,0.00
2023-02-15T01:51:55.709Z,0.00
2023-02-15T02:01:59.236Z,0.00
2023-02-15T02:07:00.131Z,-0.10
2023-02-15T02:27:58.350Z,-0.20
2023-02-15T02:33:15.615Z,-0.20
2023-02-15T02:43:44.855Z,-0.20
2023-02-15T02:58:47.934Z,-0.20
2023-02-15T03:01:40.058Z,-0.10
2023-02-15T03:04:18.638Z,-0.10
2023-02-15T03:07:07.391Z,-0.10
2023-02-15T03:12:18.342Z,-0.10
2023-02-15T03:14:55.225Z,-0.20
2023-02-15T03:17:27.145Z,-0.20
2023-02-15T03:19:58.927Z,-0.10
2023-02-15T03:22:41.030Z,-0.10
2023-02-15T03:25:18.843Z,-0.10
2023-02-15T03:30:21.241Z,0.00
2023-02-15T03:40:41.205Z,-0.10
2023-02-15T03:43:41.452Z,0.00
2023-02-15T03:51:37.521Z,-0.10
2023-02-15T04:07:05.064Z,-0.10
2023-02-15T04:09:51.450Z,-0.10
2023-02-15T04:23:06.724Z,-0.20
2023-02-15T04:35:26.788Z,-0.20
2023-02-15T04:47:46.642Z,-0.10
2023-02-15T05:05:01.381Z,0.10
2023-02-15T05:07:28.809Z,0.10
2023-02-15T05:42:39.778Z,0.20
2023-02-15T05:54:59.172Z,0.30
2023-02-15T06:14:40.376Z,0.70
2023-02-15T06:29:27.273Z,0.90
2023-02-15T06:31:55.084Z,0.90
2023-02-15T07:24:01.316Z,0.90
2023-02-15T07:36:21.927Z,2.10
2023-02-15T07:38:49.415Z,2.20
2023-02-15T07:43:46.278Z,2.30
2023-02-15T07:46:17.561Z,2.30
2023-02-15T07:48:46.716Z,2.40
2023-02-15T07:56:14.489Z,2.40
2023-02-15T08:01:23.911Z,1.80
2023-02-15T08:06:20.770Z,2.60
2023-02-15T08:14:21.748Z,2.80
2023-02-15T08:19:29.826Z,3.00
2023-02-15T08:24:30.460Z,3.20
2023-02-15T08:26:59.959Z,3.10
2023-02-15T08:29:29.118Z,3.30
2023-02-15T08:32:03.391Z,3.30
2023-02-15T08:37:00.305Z,3.40
2023-02-15T08:49:22.898Z,3.60
2023-02-15T08:59:19.204Z,3.80
2023-02-15T09:01:47.735Z,3.70
2023-02-15T09:06:48.912Z,4.20
2023-02-15T09:11:46.920Z,4.30
2023-02-15T09:14:15.448Z,4.40
2023-02-15T09:26:41.926Z,4.80
2023-02-15T09:31:45.402Z,5.00
2023-02-15T09:34:17.232Z,5.00
2023-02-15T09:39:40.206Z,5.30
2023-02-15T09:42:58.872Z,5.20
2023-02-15T09:48:29.944Z,5.30
2023-02-15T09:51:35.384Z,5.70
2023-02-15T09:54:12.379Z,6.00
2023-02-15T09:56:49.182Z,6.20
2023-02-15T09:59:30.607Z,6.50
2023-02-15T10:05:01.425Z,6.60
2023-02-15T10:07:56.290Z,6.50
2023-02-15T10:10:49.024Z,6.70
2023-02-15T10:13:40.615Z,4.90
2023-02-15T10:18:55.156Z,6.80
2023-02-15T10:24:26.929Z,6.70
2023-02-15T10:27:03.092Z,6.70
2023-02-15T10:29:39.914Z,6.80
2023-02-15T10:32:28.093Z,7.00
2023-02-15T10:41:11.510Z,6.70
2023-02-15T10:43:50.655Z,6.80
2023-02-15T10:51:41.852Z,6.90
2023-02-15T10:54:22.135Z,6.80
2023-02-15T10:59:53.950Z,6.70
2023-02-15T11:07:55.432Z,7.50
2023-02-15T11:10:35.598Z,7.10
2023-02-15T11:16:12.942Z,7.20
2023-02-15T11:19:06.937Z,7.20
2023-02-15T11:21:44.018Z,7.20
2023-02-15T11:24:13.905Z,7.00
2023-02-15T11:26:48.812Z,7.20
2023-02-15T11:32:24.262Z,7.30
2023-02-15T11:35:12.280Z,7.30
2023-02-15T11:38:00.292Z,7.20
2023-02-15T11:43:04.471Z,7.20
2023-02-15T11:45:35.421Z,7.10
2023-02-15T11:48:09.930Z,7.10
2023-02-15T11:50:38.473Z,7.10
2023-02-15T11:53:13.578Z,7.10
2023-02-15T11:55:43.055Z,7.10
2023-02-15T12:03:41.563Z,6.90
2023-02-15T12:06:23.968Z,7.00
2023-02-15T12:09:04.758Z,7.00
2023-02-15T12:11:40.554Z,6.90
2023-02-15T12:14:10.864Z,6.90
2023-02-15T12:16:49.834Z,7.00
2023-02-15T12:19:39.340Z,7.00
2023-02-15T12:22:10.517Z,6.90
2023-02-15T12:24:45.778Z,6.90
2023-02-15T12:27:34.462Z,6.90
2023-02-15T12:30:36.554Z,7.00
2023-02-15T12:33:31.719Z,6.90
2023-02-15T12:36:20.377Z,6.90
2023-02-15T12:39:17.828Z,6.90
2023-02-15T12:44:33.392Z,6.70
2023-02-15T12:47:05.099Z,6.70
2023-02-15T12:49:38.490Z,6.70
2023-02-15T12:52:26.159Z,6.70
2023-02-15T12:55:10.527Z,6.70
2023-02-15T12:57:38.134Z,6.70
2023-02-15T13:00:20.944Z,6.70
2023-02-15T13:02:51.061Z,6.60
2023-02-15T13:05:33.068Z,6.60
2023-02-15T13:08:11.549Z,6.30
2023-02-15T13:10:59.260Z,6.40
2023-02-15T13:13:33.108Z,6.00
2023-02-15T13:16:04.269Z,5.80
2023-02-15T13:18:45.106Z,5.60
2023-02-15T13:21:27.711Z,5.60
2023-02-15T13:24:47.857Z,5.20
2023-02-15T13:27:23.850Z,5.10
2023-02-15T13:30:00.052Z,4.90
2023-02-15T13:32:30.047Z,4.90
2023-02-15T13:40:36.581Z,4.90
2023-02-15T13:45:58.674Z,4.60
2023-02-15T13:48:48.793Z,4.70
2023-02-15T13:51:47.026Z,4.70
2023-02-15T13:54:55.995Z,4.40
2023-02-15T13:57:45.531Z,4.50
2023-02-15T14:00:29.990Z,4.40
2023-02-15T14:03:38.773Z,4.40
2023-02-15T14:06:35.624Z,4.20
2023-02-15T14:09:07.932Z,4.20
2023-02-15T14:11:43.904Z,4.10
2023-02-15T14:14:13.980Z,4.10
2023-02-15T14:17:06.173Z,2.00
2023-02-15T14:19:47.101Z,4.10
2023-02-15T14:22:48.598Z,3.90
2023-02-15T14:25:24.092Z,4.10
2023-02-15T14:28:23.100Z,4.10
2023-02-15T14:30:55.173Z,4.10
2023-02-15T14:33:38.181Z,3.90
2023-02-15T14:36:08.602Z,3.90
2023-02-15T14:41:32.084Z,3.70
2023-02-15T14:44:21.164Z,3.70
2023-02-15T14:47:20.617Z,3.60
2023-02-15T14:52:16.398Z,3.50
2023-02-15T14:54:46.771Z,3.50
2023-02-15T14:57:14.125Z,3.50
2023-02-15T15:02:19.055Z,3.50
2023-02-15T15:05:19.034Z,3.40
2023-02-15T15:10:21.502Z,3.40
2023-02-15T15:12:56.200Z,3.40
2023-02-15T15:15:30.784Z,3.40
2023-02-15T15:18:05.392Z,3.40
2023-02-15T15:26:24.424Z,3.40
2023-02-15T15:28:52.072Z,3.40
2023-02-15T15:31:52.616Z,3.20
2023-02-15T15:35:02.407Z,3.40
2023-02-15T15:37:53.466Z,3.30
2023-02-15T15:40:38.104Z,3.30
2023-02-15T15:43:34.073Z,3.30
2023-02-15T15:46:40.974Z,3.20
2023-02-15T15:49:13.953Z,3.20
2023-02-15T15:51:43.296Z,3.10
2023-02-15T15:56:55.698Z,2.90
2023-02-15T15:59:30.325Z,1.30
2023-02-15T16:02:04.690Z,2.70
2023-02-15T16:04:35.184Z,2.60
2023-02-15T16:07:16.062Z,2.60
2023-02-15T16:12:22.884Z,2.40
2023-02-15T16:14:53.904Z,2.00
2023-02-15T16:17:24.816Z,2.20
2023-02-15T16:22:24.353Z,2.50
2023-02-15T16:25:16.444Z,2.10
2023-02-15T16:27:49.510Z,2.10
2023-02-15T16:30:29.667Z,2.00
2023-02-15T16:33:09.374Z,2.00
2023-02-15T16:35:39.238Z,2.10
2023-02-15T16:40:47.073Z,2.10
2023-02-15T16:43:24.291Z,2.10
2023-02-15T16:45:52.552Z,2.10
2023-02-15T16:48:28.760Z,2.10
2023-02-15T16:50:58.594Z,2.10
2023-02-15T16:53:28.633Z,2.20
2023-02-15T16:55:57.732Z,2.10
2023-02-15T16:58:40.887Z,2.00
2023-02-15T17:01:14.445Z,2.00
2023-02-15T17:03:43.147Z,2.00
2023-02-15T17:06:27.835Z,1.90
2023-02-15T17:09:19.346Z,1.90
2023-02-15T17:11:49.511Z,1.90
2023-02-15T17:14:22.066Z,1.90
2023-02-15T17:16:57.818Z,1.90
2023-02-15T17:19:29.811Z,1.90
2023-02-15T17:21:59.971Z,1.90
2023-02-15T17:24:36.697Z,1.90
2023-02-15T17:27:28.376Z,1.80
2023-02-15T17:30:04.093Z,1.70
2023-02-15T17:35:10.075Z,1.60
2023-02-15T17:37:37.492Z,1.70
2023-02-15T17:40:25.364Z,1.60
2023-02-15T17:42:53.517Z,1.60
2023-02-15T17:45:25.850Z,1.60
2023-02-15T17:47:53.536Z,1.60
2023-02-15T17:50:27.315Z,1.50
2023-02-15T17:52:56.659Z,1.50
2023-02-15T17:55:39.010Z,1.50
2023-02-15T17:58:20.127Z,1.50
2023-02-15T18:01:12.027Z,1.50
2023-02-15T18:04:10.704Z,1.50
2023-02-15T18:07:00.947Z,1.50
2023-02-15T18:09:46.732Z,1.50
2023-02-15T18:12:24.452Z,1.50
2023-02-15T18:14:54.362Z,1.50
2023-02-15T18:17:29.960Z,1.50
2023-02-15T18:19:57.859Z,1.40
2023-02-15T18:22:25.535Z,1.40
2023-02-15T18:24:53.330Z,1.40
2023-02-15T18:27:21.413Z,1.30
2023-02-15T18:32:25.396Z,1.40
2023-02-15T18:34:56.660Z,1.30
2023-02-15T18:37:26.423Z,1.30
2023-02-15T18:39:56.712Z,1.30
2023-02-15T18:42:28.851Z,1.30
2023-02-15T18:45:01.170Z,1.30
2023-02-15T18:47:30.938Z,1.30
2023-02-15T18:49:58.478Z,1.30
2023-02-15T18:52:31.905Z,1.30
2023-02-15T18:55:04.238Z,1.30
2023-02-15T18:57:32.912Z,1.30
2023-02-15T19:00:00.518Z,1.30
2023-02-15T19:02:28.278Z,1.20
2023-02-15T19:04:55.816Z,1.20
2023-02-15T19:07:29.833Z,1.20
2023-02-15T19:10:01.640Z,1.20
2023-02-15T19:12:29.664Z,1.20
2023-02-15T19:14:57.540Z,1.20
2023-02-15T19:17:25.374Z,1.10
2023-02-15T19:19:53.480Z,1.20
2023-02-15T19:22:30.197Z,1.20
2023-02-15T19:25:01.040Z,1.20
2023-02-15T19:27:37.033Z,1.20
2023-02-15T19:30:23.207Z,1.10
2023-02-15T19:32:53.273Z,1.20
2023-02-15T19:35:23.807Z,1.10
2023-02-15T19:37:53.262Z,1.10
2023-02-15T19:40:22.241Z,1.10
2023-02-15T19:42:50.042Z,1.20
2023-02-15T19:45:19.527Z,1.00
2023-02-15T19:47:48.414Z,1.10
2023-02-15T19:50:22.552Z,1.10
2023-02-15T19:55:29.587Z,1.10
2023-02-15T19:57:58.447Z,1.10
2023-02-15T20:00:32.665Z,1.00
2023-02-15T20:03:00.784Z,1.00
2023-02-15T20:05:31.001Z,1.00
2023-02-15T20:10:32.780Z,1.10
2023-02-15T20:13:01.655Z,1.00
2023-02-15T20:15:33.047Z,1.00
2023-02-15T20:18:06.861Z,1.00
2023-02-15T20:20:48.643Z,1.00
2023-02-15T20:23:31.749Z,1.00
2023-02-15T20:26:00.887Z,0.90
2023-02-15T20:28:31.538Z,1.00
2023-02-15T20:30:59.617Z,0.90
2023-02-15T20:38:31.168Z,0.80
2023-02-15T20:41:18.843Z,0.80
2023-02-15T20:46:14.123Z,0.70
2023-02-15T20:48:41.777Z,0.70
2023-02-15T20:51:21.177Z,0.70
2023-02-15T20:53:49.102Z,0.80
2023-02-15T20:56:24.746Z,0.70
2023-02-15T20:58:53.426Z,0.70
2023-02-15T21:01:20.980Z,0.70
2023-02-15T21:06:17.074Z,0.60
2023-02-15T21:11:21.172Z,0.80
2023-02-15T21:13:52.131Z,0.80
2023-02-15T21:16:19.873Z,0.80
2023-02-15T21:21:22.359Z,0.70
2023-02-15T21:23:50.660Z,0.70
2023-02-15T21:26:20.638Z,0.80
2023-02-15T21:31:22.738Z,0.70
2023-02-15T21:33:52.446Z,0.70
2023-02-15T21:36:23.332Z,0.70
2023-02-15T21:38:51.712Z,0.80
2023-02-15T21:41:39.417Z,0.70
2023-02-15T21:44:41.778Z,0.70
2023-02-15T21:47:48.126Z,0.70
2023-02-15T21:50:37.724Z,0.60
2023-02-15T21:53:06.989Z,0.60
2023-02-15T22:00:31.035Z,0.70
2023-02-15T22:03:00.920Z,0.60
2023-02-15T22:05:33.729Z,0.70
2023-02-15T22:08:01.611Z,0.70
2023-02-15T22:10:33.648Z,0.70
2023-02-15T22:13:02.149Z,0.70
2023-02-15T22:15:36.784Z,0.70
2023-02-15T22:18:05.379Z,0.70
2023-02-15T22:23:01.100Z,0.60
2023-02-15T22:25:28.552Z,0.70
2023-02-15T22:27:56.368Z,0.70
2023-02-15T22:30:26.516Z,0.70
2023-02-15T22:32:55.624Z,0.70
2023-02-15T22:35:34.140Z,0.70
2023-02-15T22:38:02.018Z,0.70
2023-02-15T22:40:34.539Z,0.70
2023-02-15T22:43:05.018Z,0.70
2023-02-15T22:45:35.689Z,0.70
2023-02-15T22:50:33.087Z,0.70
2023-02-15T22:53:04.146Z,0.70
2023-02-15T22:55:37.553Z,0.70
2023-02-15T23:00:37.888Z,0.60
2023-02-15T23:03:16.538Z,0.70
2023-02-15T23:08:12.744Z,0.60
2023-02-15T23:10:41.696Z,0.60
2023-02-15T23:13:38.961Z,0.60
2023-02-15T23:16:08.222Z,0.60
2023-02-15T23:18:41.046Z,0.70
2023-02-15T23:21:20.835Z,0.70
2023-02-15T23:23:55.772Z,0.70
2023-02-15T23:26:31.285Z,0.70
2023-02-15T23:29:01.004Z,0.70
2023-02-15T23:31:36.802Z,0.70
2023-02-15T23:34:17.788Z,0.70
2023-02-15T23:36:45.460Z,0.60
2023-02-15T23:39:35.507Z,0.70
2023-02-15T23:42:06.719Z,0.70
2023-02-15T23:44:34.294Z,0.60
2023-02-15T23:51:59.800Z,0.70
2023-02-15T23:54:27.355Z,0.60
2023-02-15T23:56:59.435Z,0.60
2023-02-15T23:59:30.309Z,0.60
